createdAt,value
2022-07-29T00:02:33.899Z,2.85
2022-07-29T00:05:35.391Z,2.47
2022-07-29T00:08:36.833Z,2.20
2022-07-29T00:11:38.566Z,2.90
2022-07-29T00:14:40.020Z,2.90
2022-07-29T00:17:41.514Z,3.22
2022-07-29T00:20:43.206Z,1.98
2022-07-29T00:23:44.740Z,1.70
2022-07-29T00:26:46.461Z,2.90
2022-07-29T00:29:48.135Z,2.70
2022-07-29T00:32:49.609Z,2.13
2022-07-29T00:35:51.154Z,2.67
2022-07-29T00:41:55.991Z,1.67
2022-07-29T00:44:57.490Z,2.55
2022-07-29T00:47:59.064Z,1.88
2022-07-29T00:51:03.554Z,2.88
2022-07-29T00:54:06.987Z,2.33
2022-07-29T00:57:09.008Z,2.35
2022-07-29T01:00:14.980Z,1.88
2022-07-29T01:03:16.773Z,2.15
2022-07-29T01:06:19.833Z,1.50
2022-07-29T01:09:42.904Z,2.13
2022-07-29T01:12:48.726Z,2.28
2022-07-29T01:16:00.554Z,2.08
2022-07-29T01:19:14.001Z,1.30
2022-07-29T01:22:29.878Z,1.77
2022-07-29T01:25:55.895Z,2.00
2022-07-29T01:29:10.186Z,2.30
2022-07-29T01:32:28.963Z,2.30
2022-07-29T01:35:37.241Z,1.70
2022-07-29T01:38:42.215Z,1.40
2022-07-29T01:42:27.938Z,2.20
2022-07-29T01:45:39.458Z,2.40
2022-07-29T01:48:48.253Z,1.38
2022-07-29T01:51:59.936Z,1.70
2022-07-29T01:55:08.223Z,1.92
2022-07-29T01:58:10.407Z,1.80
2022-07-29T02:01:13.761Z,1.63
2022-07-29T02:07:33.846Z,1.80
2022-07-29T02:10:38.008Z,2.40
2022-07-29T02:13:41.591Z,1.60
2022-07-29T02:16:44.374Z,1.23
2022-07-29T02:19:48.167Z,2.08
2022-07-29T02:22:52.923Z,2.00
2022-07-29T02:25:56.995Z,1.95
2022-07-29T02:29:01.037Z,1.52
2022-07-29T02:32:04.660Z,1.17
2022-07-29T02:35:07.669Z,1.58
2022-07-29T02:38:31.666Z,2.08
2022-07-29T02:41:53.391Z,1.48
2022-07-29T02:44:55.193Z,2.20
2022-07-29T02:48:00.688Z,1.55
2022-07-29T02:51:09.162Z,1.23
2022-07-29T02:54:33.169Z,2.08
2022-07-29T02:57:54.742Z,1.33
2022-07-29T03:01:09.219Z,1.95
2022-07-29T03:04:14.173Z,1.45
2022-07-29T03:07:20.298Z,1.25
2022-07-29T03:10:22.698Z,2.05
2022-07-29T03:13:25.507Z,2.05
2022-07-29T03:16:27.441Z,1.33
2022-07-29T03:19:29.213Z,2.50
2022-07-29T03:22:31.318Z,2.53
2022-07-29T03:25:32.893Z,1.98
2022-07-29T03:28:34.360Z,2.30
2022-07-29T03:31:35.846Z,2.70
2022-07-29T03:34:38.778Z,1.60
2022-07-29T03:37:40.603Z,2.65
2022-07-29T03:40:48.981Z,2.90
2022-07-29T03:43:52.427Z,2.67
2022-07-29T03:50:03.804Z,2.67
2022-07-29T03:53:05.422Z,1.60
2022-07-29T03:56:08.347Z,2.50
2022-07-29T03:59:12.106Z,1.90
2022-07-29T04:02:14.950Z,1.60
2022-07-29T04:05:20.000Z,2.53
2022-07-29T04:08:21.457Z,2.78
2022-07-29T04:11:23.027Z,2.35
2022-07-29T04:14:24.484Z,1.45
2022-07-29T04:17:25.919Z,1.30
2022-07-29T04:20:27.657Z,1.30
2022-07-29T04:23:33.398Z,1.10
2022-07-29T04:26:35.560Z,1.60
2022-07-29T04:29:37.032Z,2.40
2022-07-29T04:32:57.873Z,1.80
2022-07-29T04:35:59.303Z,1.23
2022-07-29T04:39:02.015Z,1.90
2022-07-29T04:42:03.658Z,2.65
2022-07-29T04:45:05.679Z,2.28
2022-07-29T04:48:09.394Z,1.70
2022-07-29T04:51:10.867Z,1.13
2022-07-29T04:54:12.365Z,1.23
2022-07-29T04:57:13.881Z,1.98
2022-07-29T05:00:15.603Z,1.75
2022-07-29T05:03:17.351Z,2.17
2022-07-29T05:06:18.808Z,2.13
2022-07-29T05:09:20.315Z,2.20
2022-07-29T05:12:22.041Z,1.50
2022-07-29T05:15:23.531Z,1.58
2022-07-29T05:18:26.339Z,1.75
2022-07-29T05:21:27.903Z,2.40
2022-07-29T05:24:29.427Z,1.73
2022-07-29T05:27:30.951Z,1.98
2022-07-29T05:30:32.552Z,1.65
2022-07-29T05:33:36.133Z,1.90
2022-07-29T05:36:38.223Z,1.60
2022-07-29T05:39:47.198Z,1.48
2022-07-29T05:42:50.674Z,1.77
2022-07-29T05:45:52.235Z,1.52
2022-07-29T05:48:53.752Z,1.52
2022-07-29T05:51:55.390Z,1.52
2022-07-29T05:54:57.538Z,1.27
2022-07-29T05:58:01.815Z,1.70
2022-07-29T06:01:03.610Z,1.42
2022-07-29T06:04:05.242Z,1.30
2022-07-29T06:07:07.000Z,1.30
2022-07-29T06:10:08.850Z,1.27
2022-07-29T06:13:10.719Z,1.20
2022-07-29T06:16:12.258Z,1.30
2022-07-29T06:19:17.479Z,1.45
2022-07-29T06:22:19.111Z,1.30
2022-07-29T06:25:20.799Z,1.35
2022-07-29T06:28:22.377Z,1.48
2022-07-29T06:31:24.003Z,1.75
2022-07-29T06:34:25.491Z,1.60
2022-07-29T06:37:27.273Z,1.85
2022-07-29T06:40:49.688Z,1.50
2022-07-29T06:43:55.232Z,1.50
2022-07-29T06:46:57.095Z,1.52
2022-07-29T06:49:58.574Z,1.63
2022-07-29T06:53:00.047Z,1.30
2022-07-29T06:56:03.306Z,1.27
2022-07-29T06:59:05.628Z,1.38
2022-07-29T07:02:07.500Z,1.60
2022-07-29T07:05:09.169Z,1.50
2022-07-29T07:08:10.918Z,1.73
2022-07-29T07:11:12.961Z,1.65
2022-07-29T07:14:14.427Z,1.20
2022-07-29T07:17:15.958Z,1.27
2022-07-29T07:20:18.181Z,1.40
2022-07-29T07:23:19.981Z,1.60
2022-07-29T07:26:21.474Z,1.58
2022-07-29T07:29:22.921Z,1.50
2022-07-29T07:32:24.607Z,1.30
2022-07-29T07:35:27.498Z,1.30
2022-07-29T07:38:29.244Z,1.48
2022-07-29T07:41:32.533Z,1.30
2022-07-29T07:44:46.249Z,1.30
2022-07-29T07:47:55.633Z,1.80
2022-07-29T07:50:57.130Z,1.77
2022-07-29T07:53:58.637Z,1.88
2022-07-29T07:57:00.103Z,2.50
2022-07-29T08:00:02.116Z,2.22
2022-07-29T08:03:16.706Z,1.90
2022-07-29T08:06:18.847Z,1.90
2022-07-29T08:09:29.270Z,1.98
2022-07-29T08:12:31.661Z,1.80
2022-07-29T08:15:33.913Z,2.00
2022-07-29T08:18:35.778Z,2.60
2022-07-29T08:21:37.868Z,2.30
2022-07-29T08:24:47.088Z,2.30
2022-07-29T08:27:48.620Z,2.08
2022-07-29T08:30:50.061Z,2.65
2022-07-29T08:33:52.943Z,2.97
2022-07-29T08:36:54.417Z,2.33
2022-07-29T08:39:55.868Z,2.00
2022-07-29T08:42:57.427Z,2.55
2022-07-29T08:45:59.121Z,2.90
2022-07-29T08:49:00.744Z,2.28
2022-07-29T08:52:03.373Z,2.40
2022-07-29T08:55:09.718Z,2.97
2022-07-29T08:58:12.396Z,2.25
2022-07-29T09:01:21.617Z,2.40
2022-07-29T09:04:25.855Z,2.60
2022-07-29T09:07:27.294Z,2.78
2022-07-29T09:10:36.989Z,2.45
2022-07-29T09:13:38.433Z,2.20
2022-07-29T09:16:54.872Z,3.28
2022-07-29T09:20:09.654Z,2.53
2022-07-29T09:23:11.182Z,2.55
2022-07-29T09:26:29.167Z,2.50
2022-07-29T09:29:34.488Z,3.60
2022-07-29T09:32:58.129Z,3.15
2022-07-29T09:36:07.923Z,2.63
2022-07-29T09:39:09.677Z,3.30
2022-07-29T09:42:11.398Z,3.05
2022-07-29T09:45:14.218Z,3.10
2022-07-29T09:48:32.236Z,2.60
2022-07-29T09:51:38.629Z,2.90
2022-07-29T09:54:40.357Z,2.80
2022-07-29T09:57:42.114Z,3.15
2022-07-29T10:00:45.011Z,3.05
2022-07-29T10:03:53.868Z,2.53
2022-07-29T10:07:05.346Z,2.65
2022-07-29T10:10:07.512Z,2.50
2022-07-29T10:13:16.206Z,3.00
2022-07-29T10:16:18.698Z,3.40
2022-07-29T10:19:20.596Z,3.13
2022-07-29T10:22:50.665Z,2.42
2022-07-29T10:25:46.866Z,3.42
2022-07-29T10:28:48.396Z,3.22
2022-07-29T10:31:56.614Z,3.60
2022-07-29T10:35:19.501Z,3.65
2022-07-29T10:38:39.246Z,3.50
2022-07-29T10:42:09.266Z,2.58
2022-07-29T10:45:10.910Z,3.33
2022-07-29T10:48:14.352Z,4.13
2022-07-29T10:51:16.554Z,4.22
2022-07-29T10:54:36.944Z,3.28
2022-07-29T10:57:53.692Z,2.88
2022-07-29T11:00:57.542Z,3.10
2022-07-29T11:03:59.195Z,2.85
2022-07-29T11:07:11.164Z,3.17
2022-07-29T11:10:13.960Z,2.30
2022-07-29T11:13:56.042Z,3.15
2022-07-29T11:17:02.979Z,3.13
2022-07-29T11:20:34.791Z,3.40
2022-07-29T11:23:44.438Z,4.00
2022-07-29T11:27:08.530Z,3.85
2022-07-29T11:30:10.695Z,3.78
2022-07-29T11:33:54.271Z,4.20
2022-07-29T11:37:14.077Z,3.45
2022-07-29T11:40:16.510Z,2.90
2022-07-29T11:43:58.254Z,2.08
2022-07-29T11:47:01.222Z,2.28
2022-07-29T11:50:05.943Z,2.03
2022-07-29T11:53:13.715Z,1.67
2022-07-29T11:56:21.254Z,1.65
2022-07-29T11:59:33.464Z,2.00
2022-07-29T12:02:43.136Z,2.00
2022-07-29T12:05:47.955Z,2.03
2022-07-29T12:08:50.130Z,1.92
2022-07-29T12:12:03.143Z,2.20
2022-07-29T12:15:14.829Z,1.90
2022-07-29T12:18:19.351Z,1.77
2022-07-29T12:21:20.871Z,2.00
2022-07-29T12:24:27.574Z,1.55
2022-07-29T12:27:29.741Z,0.80
2022-07-29T12:30:42.242Z,1.50
2022-07-29T12:36:54.295Z,1.20
2022-07-29T12:39:56.099Z,1.70
2022-07-29T12:43:12.601Z,3.10
2022-07-29T12:46:15.824Z,2.50
2022-07-29T12:52:34.986Z,2.25
2022-07-29T12:55:45.178Z,2.30
2022-07-29T12:58:50.833Z,2.35
2022-07-29T13:01:53.169Z,2.08
2022-07-29T13:04:59.201Z,2.47
2022-07-29T13:08:21.935Z,3.08
2022-07-29T13:11:46.643Z,2.33
2022-07-29T13:14:51.084Z,2.60
2022-07-29T13:17:54.271Z,2.33
2022-07-29T13:20:56.366Z,2.67
2022-07-29T13:23:57.809Z,4.35
2022-07-29T13:26:59.479Z,2.40
2022-07-29T13:30:04.316Z,2.63
2022-07-29T13:33:05.830Z,3.10
2022-07-29T13:36:07.412Z,3.00
2022-07-29T13:39:08.865Z,3.53
2022-07-29T13:42:11.102Z,3.45
2022-07-29T13:45:12.743Z,2.30
2022-07-29T13:48:14.187Z,2.50
2022-07-29T13:51:15.693Z,3.40
2022-07-29T13:54:17.229Z,2.67
2022-07-29T13:57:18.726Z,2.88
2022-07-29T14:00:20.447Z,3.40
2022-07-29T14:03:21.935Z,3.45
2022-07-29T14:06:23.410Z,3.50
2022-07-29T14:09:25.175Z,3.20
2022-07-29T14:12:26.752Z,3.10
2022-07-29T14:15:28.280Z,2.78
2022-07-29T14:18:29.750Z,2.92
2022-07-29T14:21:31.513Z,2.83
2022-07-29T14:24:37.114Z,2.80
2022-07-29T14:27:39.163Z,2.85
2022-07-29T14:30:40.858Z,2.60
2022-07-29T14:33:42.579Z,3.08
2022-07-29T14:36:47.794Z,2.70
2022-07-29T14:39:49.333Z,3.03
2022-07-29T14:42:50.794Z,3.17
2022-07-29T14:45:55.039Z,2.65
2022-07-29T14:48:58.735Z,2.47
2022-07-29T14:52:00.641Z,3.00
2022-07-29T14:55:03.378Z,3.05
2022-07-29T14:58:10.899Z,2.67
2022-07-29T15:01:15.108Z,2.53
2022-07-29T15:04:17.374Z,2.65
2022-07-29T15:07:19.170Z,2.80
2022-07-29T15:10:20.958Z,2.60
2022-07-29T15:13:22.424Z,2.75
2022-07-29T15:16:24.913Z,2.95
2022-07-29T15:19:26.635Z,2.63
2022-07-29T15:22:28.415Z,2.90
2022-07-29T15:25:29.923Z,3.25
2022-07-29T15:28:31.491Z,2.90
2022-07-29T15:31:33.119Z,3.20
2022-07-29T15:34:35.291Z,3.08
2022-07-29T15:37:49.249Z,3.10
2022-07-29T15:40:51.154Z,2.95
2022-07-29T15:43:52.673Z,2.60
2022-07-29T15:47:07.286Z,2.10
2022-07-29T15:50:14.352Z,3.00
2022-07-29T15:53:15.854Z,2.60
2022-07-29T15:56:17.847Z,2.60
2022-07-29T15:59:22.276Z,2.65
2022-07-29T16:02:24.240Z,2.00
2022-07-29T16:05:26.158Z,2.20
2022-07-29T16:08:27.617Z,2.45
2022-07-29T16:11:29.167Z,2.33
2022-07-29T16:14:30.628Z,2.28
2022-07-29T16:17:32.169Z,2.10
2022-07-29T16:20:33.654Z,1.88
2022-07-29T16:23:35.140Z,2.25
2022-07-29T16:26:36.671Z,2.22
2022-07-29T16:29:38.188Z,2.67
2022-07-29T16:32:40.166Z,2.20
2022-07-29T16:35:41.684Z,2.30
2022-07-29T16:38:47.369Z,2.10
2022-07-29T16:41:49.239Z,2.42
2022-07-29T16:44:50.847Z,2.88
2022-07-29T16:48:00.053Z,2.28
2022-07-29T16:51:01.977Z,2.55
2022-07-29T16:54:03.554Z,2.55
2022-07-29T16:57:05.043Z,2.53
2022-07-29T17:00:07.387Z,2.47
2022-07-29T17:03:08.943Z,2.83
2022-07-29T17:06:11.746Z,2.20
2022-07-29T17:09:16.031Z,2.67
2022-07-29T17:12:18.669Z,2.25
2022-07-29T17:15:20.176Z,2.92
2022-07-29T17:18:21.695Z,2.38
2022-07-29T17:21:23.873Z,2.75
2022-07-29T17:24:25.396Z,2.78
2022-07-29T17:27:26.846Z,2.90
2022-07-29T17:30:29.479Z,2.67
2022-07-29T17:33:31.014Z,2.28
2022-07-29T17:36:32.834Z,2.75
2022-07-29T17:39:35.475Z,2.17
2022-07-29T17:42:36.930Z,1.92
2022-07-29T17:45:48.975Z,2.90
2022-07-29T17:51:55.512Z,2.60
2022-07-29T17:55:02.494Z,2.80
2022-07-29T17:58:04.007Z,2.30
2022-07-29T18:01:05.866Z,2.90
2022-07-29T18:04:08.554Z,3.17
2022-07-29T18:07:10.443Z,2.47
2022-07-29T18:10:12.074Z,2.90
2022-07-29T18:13:13.898Z,2.38
2022-07-29T18:16:15.461Z,2.90
2022-07-29T18:19:17.125Z,2.40
2022-07-29T18:22:19.373Z,2.70
2022-07-29T18:25:20.915Z,2.13
2022-07-29T18:28:22.490Z,2.65
2022-07-29T18:31:24.209Z,2.25
2022-07-29T18:34:25.786Z,2.60
2022-07-29T18:38:00.663Z,2.55
2022-07-29T18:40:48.728Z,2.47
2022-07-29T18:43:50.176Z,2.30
2022-07-29T18:46:52.276Z,2.78
2022-07-29T18:49:53.869Z,2.80
2022-07-29T18:52:58.148Z,2.65
2022-07-29T18:56:01.291Z,2.55
2022-07-29T18:59:03.148Z,2.25
2022-07-29T19:02:04.953Z,2.78
2022-07-29T19:05:09.174Z,2.60
2022-07-29T19:08:10.691Z,2.40
2022-07-29T19:11:12.901Z,2.30
2022-07-29T19:14:14.399Z,2.05
2022-07-29T19:17:15.861Z,2.13
2022-07-29T19:20:17.421Z,2.25
2022-07-29T19:23:19.524Z,1.90
2022-07-29T19:26:21.094Z,2.33
2022-07-29T19:29:24.650Z,2.42
2022-07-29T19:32:26.576Z,2.33
2022-07-29T19:35:28.468Z,2.35
2022-07-29T19:38:30.113Z,2.00
2022-07-29T19:41:31.711Z,2.35
2022-07-29T19:44:33.194Z,2.42
2022-07-29T19:47:35.123Z,2.65
2022-07-29T19:50:37.116Z,2.00
2022-07-29T19:53:38.661Z,2.28
2022-07-29T19:56:42.197Z,2.53
2022-07-29T19:59:44.365Z,1.95
2022-07-29T20:02:46.448Z,2.25
2022-07-29T20:05:51.044Z,1.52
2022-07-29T20:08:58.195Z,1.75
2022-07-29T20:12:00.352Z,1.95
2022-07-29T20:15:01.915Z,1.70
2022-07-29T20:18:03.557Z,2.10
2022-07-29T20:21:05.154Z,1.60
2022-07-29T20:24:07.255Z,1.80
2022-07-29T20:27:13.621Z,1.98
2022-07-29T20:30:15.308Z,2.13
2022-07-29T20:33:19.304Z,2.40
2022-07-29T20:36:20.835Z,2.08
2022-07-29T20:39:22.447Z,2.00
2022-07-29T20:42:24.003Z,2.20
2022-07-29T20:45:25.727Z,1.92
2022-07-29T20:48:27.210Z,2.40
2022-07-29T20:51:28.709Z,2.00
2022-07-29T20:54:30.360Z,2.22
2022-07-29T20:57:39.311Z,2.13
2022-07-29T21:00:41.319Z,1.83
2022-07-29T21:03:42.883Z,2.03
2022-07-29T21:06:44.327Z,2.17
2022-07-29T21:09:45.851Z,2.33
2022-07-29T21:12:47.650Z,2.08
2022-07-29T21:15:50.228Z,1.90
2022-07-29T21:18:52.490Z,2.17
2022-07-29T21:21:55.297Z,2.88
2022-07-29T21:24:58.946Z,2.50
2022-07-29T21:28:19.431Z,2.20
2022-07-29T21:31:20.950Z,2.33
2022-07-29T21:34:24.570Z,1.90
2022-07-29T21:37:26.143Z,1.98
2022-07-29T21:40:27.653Z,1.83
2022-07-29T21:43:29.744Z,1.80
2022-07-29T21:46:31.355Z,1.73
2022-07-29T21:49:32.826Z,1.60
2022-07-29T21:52:35.744Z,1.80
2022-07-29T21:55:39.306Z,2.10
2022-07-29T21:58:41.082Z,2.40
2022-07-29T22:01:42.573Z,1.70
2022-07-29T22:04:44.638Z,1.27
2022-07-29T22:07:55.356Z,2.38
2022-07-29T22:10:59.349Z,1.90
2022-07-29T22:14:00.815Z,2.28
2022-07-29T22:17:03.421Z,2.10
2022-07-29T22:20:05.899Z,2.42
2022-07-29T22:23:07.744Z,1.63
2022-07-29T22:26:09.209Z,2.25
2022-07-29T22:29:11.589Z,2.15
2022-07-29T22:32:13.100Z,2.70
2022-07-29T22:35:14.738Z,2.17
2022-07-29T22:38:18.077Z,2.53
2022-07-29T22:44:22.028Z,1.70
2022-07-29T22:47:39.047Z,2.23
2022-07-29T22:50:45.400Z,2.97
2022-07-29T22:53:46.952Z,1.95
2022-07-29T22:56:48.526Z,2.30
2022-07-29T22:59:50.018Z,2.35
2022-07-29T23:02:51.487Z,1.73
2022-07-29T23:05:53.019Z,2.30
2022-07-29T23:08:54.498Z,1.50
2022-07-29T23:11:55.947Z,1.50
2022-07-29T23:14:57.475Z,1.33
2022-07-29T23:17:58.994Z,1.70
2022-07-29T23:21:00.554Z,1.70
2022-07-29T23:24:01.991Z,1.80
2022-07-29T23:27:03.845Z,1.90
2022-07-29T23:30:06.070Z,2.20
2022-07-29T23:33:07.647Z,2.15
2022-07-29T23:36:09.133Z,1.77
2022-07-29T23:39:11.340Z,2.20
2022-07-29T23:42:12.871Z,1.95
2022-07-29T23:45:14.354Z,2.17
2022-07-29T23:48:15.911Z,1.40
2022-07-29T23:51:17.350Z,1.73
2022-07-29T23:54:18.822Z,2.17
2022-07-29T23:57:24.307Z,1.85
